Time;durP1;ratioP1;P1;durP2;ratioP2;P2;SDS_P1;SDS_P2;PMS_P1;PMS_P2;Temp;Humidity;BMP_temperature;BMP_pressure;BME280_temperature;BME280_humidity;BME280_pressure;Samples;Min_cycle;Max_cycle;Signal;HPM_P1;HPM_P2
2023/07/15 00:01:14;;;;;;;8.27;5.60;;;19.70;99.90;;;;;;4992227;28;20030;-61
2023/07/15 00:03:40;;;;;;;8.63;5.22;;;19.20;99.90;;;;;;4980907;28;20078;-61
2023/07/15 00:06:06;;;;;;;9.13;5.22;;;19.40;99.90;;;;;;4981575;28;20035;-61
2023/07/15 00:08:31;;;;;;;9.48;5.65;;;19.50;99.90;;;;;;4985627;28;20146;-61
2023/07/15 00:10:57;;;;;;;8.48;5.05;;;19.00;99.90;;;;;;4983219;28;20420;-61
2023/07/15 00:13:23;;;;;;;9.65;5.35;;;18.80;99.90;;;;;;4986654;28;20042;-61
2023/07/15 00:15:53;;;;;;;7.47;4.78;;;18.70;99.90;;;;;;4980932;28;20496;-61
2023/07/15 00:18:20;;;;;;;10.95;5.22;;;19.60;99.90;;;;;;4979690;28;20039;-61
2023/07/15 00:20:46;;;;;;;9.38;4.82;;;19.20;99.90;;;;;;4991898;28;20034;-61
2023/07/15 00:23:25;;;;;;;7.53;4.57;;;19.60;99.90;;;;;;4977865;28;20035;-61
2023/07/15 00:25:51;;;;;;;8.93;4.35;;;19.20;99.90;;;;;;4984209;28;20043;-61
2023/07/15 00:28:19;;;;;;;7.93;4.88;;;19.40;99.90;;;;;;4991248;28;20038;-61
2023/07/15 00:30:45;;;;;;;8.70;4.55;;;19.00;99.90;;;;;;4991327;28;20100;-61
2023/07/15 00:33:15;;;;;;;7.28;4.95;;;20.00;99.90;;;;;;4991766;28;20038;-61
2023/07/15 00:35:42;;;;;;;8.65;4.70;;;19.20;99.90;;;;;;4988374;28;20046;-61
2023/07/15 00:38:10;;;;;;;8.90;4.80;;;18.80;99.90;;;;;;4991816;28;20038;-61
2023/07/15 00:40:43;;;;;;;7.18;4.53;;;19.50;99.90;;;;;;4991207;28;20050;-61
2023/07/15 00:43:28;;;;;;;9.07;4.50;;;;;;;;;;4984065;28;20038;-61
2023/07/15 00:46:12;;;;;;;8.55;4.13;;;19.00;99.90;;;;;;4981731;28;20631;-61
2023/07/15 00:48:44;;;;;;;7.43;4.65;;;19.40;99.90;;;;;;4979697;28;20476;-61
2023/07/15 00:51:10;;;;;;;8.07;4.57;;;19.30;99.90;;;;;;4990133;28;20117;-61
2023/07/15 00:53:36;;;;;;;7.88;4.55;;;19.90;99.90;;;;;;4983241;28;20110;-61
2023/07/15 00:56:01;;;;;;;8.70;4.18;;;19.60;99.90;;;;;;4990847;28;20034;-61
2023/07/15 00:58:27;;;;;;;7.25;4.15;;;19.10;99.90;;;;;;4988959;28;20073;-61
2023/07/15 01:00:53;;;;;;;7.65;4.00;;;18.90;99.90;;;;;;4977557;28;20134;-61
2023/07/15 01:03:18;;;;;;;8.13;4.68;;;19.50;99.90;;;;;;4987243;28;20096;-61
2023/07/15 01:05:44;;;;;;;7.75;4.80;;;19.40;99.90;;;;;;4977786;28;20030;-61
2023/07/15 01:08:10;;;;;;;7.93;4.10;;;19.50;99.90;;;;;;4990701;28;20065;-61
2023/07/15 01:10:35;;;;;;;7.32;3.58;;;19.20;99.90;;;;;;4979089;28;20043;-61
2023/07/15 01:13:05;;;;;;;10.90;4.70;;;19.40;99.90;;;;;;4982711;28;20511;-61
2023/07/15 01:15:30;;;;;;;7.18;4.40;;;19.30;99.90;;;;;;4990176;28;20183;-61
2023/07/15 01:17:56;;;;;;;10.25;4.22;;;19.60;99.90;;;;;;4984475;28;20113;-61
2023/07/15 01:20:25;;;;;;;6.55;3.75;;;19.70;99.90;;;;;;4980208;28;20042;-61
2023/07/15 01:22:51;;;;;;;6.80;3.70;;;19.00;86.50;;;;;;4983400;28;20123;-61
2023/07/15 01:25:17;;;;;;;8.48;3.35;;;19.30;86.70;;;;;;4989781;28;20030;-61
2023/07/15 01:27:42;;;;;;;7.88;3.90;;;19.60;84.40;;;;;;4988328;28;20038;-61
2023/07/15 01:30:09;;;;;;;7.45;3.88;;;19.60;82.20;;;;;;4975687;28;20042;-61
2023/07/15 01:32:35;;;;;;;7.40;3.75;;;19.50;75.50;;;;;;4987371;28;20399;-61
2023/07/15 01:35:03;;;;;;;6.30;3.35;;;19.40;69.60;;;;;;4985132;28;20519;-61
2023/07/15 01:37:29;;;;;;;8.70;3.90;;;20.10;65.90;;;;;;4983686;28;20507;-61
2023/07/15 01:39:55;;;;;;;7.63;4.03;;;19.80;65.70;;;;;;4990069;28;20053;-61
2023/07/15 01:42:21;;;;;;;6.78;3.58;;;19.80;57.20;;;;;;4985352;28;20061;-61
2023/07/15 01:44:46;;;;;;;6.57;3.95;;;19.20;58.00;;;;;;4989817;28;20154;-61
2023/07/15 01:47:12;;;;;;;8.80;3.72;;;19.50;48.70;;;;;;4990275;28;20031;-61
2023/07/15 01:49:38;;;;;;;7.88;3.90;;;19.60;47.10;;;;;;4985961;28;20042;-61
2023/07/15 01:52:04;;;;;;;7.20;4.30;;;20.00;27.00;;;;;;4983861;28;20109;-61
2023/07/15 01:54:30;;;;;;;8.32;4.25;;;19.80;28.50;;;;;;4988167;28;20034;-61
2023/07/15 01:56:55;;;;;;;8.50;3.85;;;19.40;29.40;;;;;;4978058;28;20084;-61
2023/07/15 01:59:21;;;;;;;6.82;4.00;;;19.50;26.70;;;;;;4979365;28;20046;-61
2023/07/15 02:01:47;;;;;;;9.65;4.22;;;19.60;26.50;;;;;;4980927;28;20030;-61
2023/07/15 02:04:12;;;;;;;6.75;3.78;;;19.80;14.40;;;;;;4990077;28;20038;-61
2023/07/15 02:06:38;;;;;;;7.90;3.58;;;19.30;1.00;;;;;;4976338;28;20039;-61
2023/07/15 02:09:07;;;;;;;10.00;3.72;;;;;;;;;;4978581;28;20448;-61
2023/07/15 02:11:34;;;;;;;6.72;3.45;;;19.60;1.00;;;;;;4978900;28;20516;-61
2023/07/15 02:14:00;;;;;;;7.53;3.47;;;19.60;1.00;;;;;;4989996;28;20049;-61
2023/07/15 02:16:27;;;;;;;15.35;3.72;;;18.90;1.00;;;;;;4980754;28;20407;-61
2023/07/15 02:18:53;;;;;;;8.20;3.95;;;;;;;;;;4985116;28;20113;-61
2023/07/15 02:21:25;;;;;;;6.22;3.22;;;19.80;1.00;;;;;;4986293;28;20030;-61
2023/07/15 02:23:52;;;;;;;5.50;3.08;;;20.30;1.00;;;;;;4974308;28;20043;-61
2023/07/15 02:26:18;;;;;;;7.47;3.08;;;19.70;1.00;;;;;;4983870;28;20445;-61
2023/07/15 02:28:43;;;;;;;6.28;3.17;;;19.60;1.00;;;;;;4987736;28;20101;-61
2023/07/15 02:31:09;;;;;;;9.32;3.88;;;19.20;1.00;;;;;;4998369;28;20685;-61
2023/07/15 02:33:35;;;;;;;6.97;3.63;;;19.80;1.00;;;;;;4979299;28;20089;-61
2023/07/15 02:36:02;;;;;;;8.93;4.00;;;19.90;99.90;;;;;;4978221;28;20488;-61
2023/07/15 02:38:28;;;;;;;9.35;3.53;;;19.70;99.90;;;;;;4977105;28;20047;-61
2023/07/15 02:40:55;;;;;;;9.00;3.88;;;19.80;99.90;;;;;;4985579;28;20085;-61
2023/07/15 02:43:21;;;;;;;6.47;3.58;;;19.90;99.90;;;;;;4986247;28;20065;-63
2023/07/15 02:45:49;;;;;;;7.65;3.75;;;19.70;99.90;;;;;;4985583;28;20030;-61
2023/07/15 02:48:15;;;;;;;7.05;4.03;;;19.70;99.90;;;;;;4973775;28;20035;-61
2023/07/15 02:50:41;;;;;;;8.07;3.55;;;20.00;99.90;;;;;;5003345;28;20096;-61
2023/07/15 02:53:07;;;;;;;9.27;4.63;;;;;;;;;;4983380;28;20038;-61
2023/07/15 02:55:32;;;;;;;6.93;3.40;;;20.20;99.90;;;;;;4978487;28;20047;-61
2023/07/15 02:57:58;;;;;;;7.88;3.40;;;19.70;99.90;;;;;;4982363;28;20477;-61
2023/07/15 03:00:24;;;;;;;9.20;3.38;;;19.90;99.90;;;;;;4985988;28;20101;-61
2023/07/15 03:02:49;;;;;;;8.48;3.50;;;20.30;99.90;;;;;;4984146;28;20034;-61
2023/07/15 03:05:16;;;;;;;7.47;3.72;;;20.00;99.90;;;;;;4981749;28;20031;-61
2023/07/15 03:07:45;;;;;;;6.72;3.75;;;20.70;99.90;;;;;;4986662;28;20527;-61
2023/07/15 03:10:18;;;;;;;8.65;3.30;;;20.20;99.90;;;;;;4983344;28;20115;-61
2023/07/15 03:12:44;;;;;;;7.53;3.70;;;20.40;99.90;;;;;;4986765;28;20453;-61
2023/07/15 03:15:10;;;;;;;6.38;3.60;;;20.50;99.90;;;;;;4982876;28;20043;-61
2023/07/15 03:17:36;;;;;;;6.95;3.92;;;20.80;99.90;;;;;;4985502;28;20046;-61
2023/07/15 03:20:19;;;;;;;7.78;3.88;;;19.60;99.90;;;;;;4980292;28;20049;-61
2023/07/15 03:22:48;;;;;;;6.50;3.80;;;20.50;99.90;;;;;;4988346;28;20680;-61
2023/07/15 03:25:14;;;;;;;8.00;3.72;;;19.80;99.90;;;;;;4987207;28;20042;-61
2023/07/15 03:27:40;;;;;;;8.52;3.72;;;19.90;99.90;;;;;;4982959;28;20503;-61
2023/07/15 03:30:10;;;;;;;14.23;4.72;;;;;;;;;;4981552;28;20046;-61
2023/07/15 03:32:37;;;;;;;8.65;4.63;;;20.10;99.90;;;;;;4983638;28;20467;-61
2023/07/15 03:35:03;;;;;;;7.70;3.47;;;20.00;99.90;;;;;;4980706;28;20050;-61
2023/07/15 03:37:33;;;;;;;7.78;3.90;;;;;;;;;;4992262;28;20042;-61
2023/07/15 03:39:59;;;;;;;8.80;4.15;;;19.80;99.90;;;;;;4991268;28;20042;-61
2023/07/15 03:42:27;;;;;;;8.63;4.18;;;19.60;99.90;;;;;;4992358;28;20041;-61
2023/07/15 03:44:53;;;;;;;8.32;3.85;;;19.90;99.90;;;;;;4988407;28;20347;-61
2023/07/15 03:47:20;;;;;;;8.38;3.90;;;19.90;99.90;;;;;;4988886;28;20118;-61
2023/07/15 03:49:46;;;;;;;7.35;3.88;;;19.60;99.90;;;;;;4982599;28;20073;-61
2023/07/15 03:52:11;;;;;;;8.23;4.00;;;19.80;99.90;;;;;;4982851;28;20047;-61
2023/07/15 03:54:37;;;;;;;7.03;3.90;;;20.20;99.90;;;;;;4981385;28;20180;-61
2023/07/15 03:57:03;;;;;;;9.27;4.35;;;20.20;99.90;;;;;;4972807;28;20121;-61
2023/07/15 03:59:29;;;;;;;8.35;3.72;;;19.70;99.90;;;;;;4988802;28;20042;-61
2023/07/15 04:01:55;;;;;;;9.07;4.07;;;19.90;99.90;;;;;;4991584;28;20038;-61
2023/07/15 04:04:21;;;;;;;7.55;4.15;;;18.90;99.90;;;;;;4984698;28;20046;-61
2023/07/15 04:06:47;;;;;;;10.07;4.05;;;19.70;99.90;;;;;;4991468;28;20121;-61
2023/07/15 04:09:13;;;;;;;9.07;4.45;;;20.10;99.90;;;;;;4991498;28;20705;-61
2023/07/15 04:11:39;;;;;;;7.25;4.07;;;20.10;1.00;;;;;;4981455;28;20042;-61
2023/07/15 04:14:05;;;;;;;9.10;4.30;;;19.00;1.00;;;;;;4990816;28;20727;-61
2023/07/15 04:16:31;;;;;;;8.90;4.43;;;;;;;;;;4988746;28;20058;-61
2023/07/15 04:18:57;;;;;;;8.77;3.95;;;19.60;1.00;;;;;;4979835;28;20198;-61
2023/07/15 04:21:23;;;;;;;7.57;4.13;;;19.60;1.00;;;;;;4991600;28;20074;-61
2023/07/15 04:23:48;;;;;;;8.10;4.50;;;19.70;1.00;;;;;;4987225;28;20035;-61
2023/07/15 04:26:23;;;;;;;6.90;4.40;;;19.80;1.00;;;;;;4979823;28;20038;-61
2023/07/15 04:28:49;;;;;;;9.57;4.95;;;19.80;11.70;;;;;;4981843;28;20046;-61
2023/07/15 04:31:16;;;;;;;10.43;4.50;;;19.60;43.10;;;;;;4982938;28;20424;-61
2023/07/15 04:33:43;;;;;;;9.13;4.22;;;19.50;77.70;;;;;;4983352;28;20060;-61
2023/07/15 04:36:08;;;;;;;8.38;4.57;;;19.70;86.80;;;;;;4986872;28;20038;-61
2023/07/15 04:38:34;;;;;;;10.20;5.30;;;19.50;87.70;;;;;;4987690;28;20558;-61
2023/07/15 04:41:00;;;;;;;8.70;4.38;;;19.70;94.40;;;;;;4984621;28;20407;-61
2023/07/15 04:43:26;;;;;;;7.57;4.47;;;19.40;99.90;;;;;;4987569;28;20348;-61
2023/07/15 04:45:52;;;;;;;8.80;4.70;;;19.70;99.90;;;;;;4979023;28;20096;-61
2023/07/15 04:48:17;;;;;;;7.28;4.45;;;19.60;99.90;;;;;;4985495;28;20046;-61
2023/07/15 04:50:43;;;;;;;8.05;3.95;;;19.60;99.90;;;;;;4987783;28;20034;-61
2023/07/15 04:53:09;;;;;;;8.18;4.30;;;20.00;99.90;;;;;;4985507;28;20089;-61
2023/07/15 04:55:37;;;;;;;7.47;4.53;;;19.90;99.90;;;;;;4980044;28;20093;-62
2023/07/15 04:58:03;;;;;;;8.25;4.38;;;20.00;99.90;;;;;;4979305;28;20041;-61
2023/07/15 05:00:29;;;;;;;8.57;3.80;;;19.90;99.90;;;;;;4990328;28;20393;-62
2023/07/15 05:02:55;;;;;;;9.23;3.90;;;20.00;99.90;;;;;;4975298;28;20096;-61
2023/07/15 05:05:20;;;;;;;8.40;4.00;;;20.10;99.90;;;;;;4976961;28;20101;-61
2023/07/15 05:07:49;;;;;;;8.90;4.47;;;20.30;99.90;;;;;;4974412;28;20110;-61
2023/07/15 05:10:15;;;;;;;8.35;3.63;;;19.90;99.90;;;;;;4980472;28;20105;-62
2023/07/15 05:12:41;;;;;;;8.90;4.22;;;20.40;99.90;;;;;;4980083;28;20078;-61
2023/07/15 05:15:08;;;;;;;8.82;3.50;;;20.00;99.90;;;;;;4987015;28;20062;-61
2023/07/15 05:17:33;;;;;;;6.60;3.47;;;19.90;99.90;;;;;;4979736;28;20110;-61
2023/07/15 05:19:59;;;;;;;8.20;3.65;;;21.00;99.90;;;;;;4979765;28;20171;-61
2023/07/15 05:22:25;;;;;;;6.97;4.18;;;20.70;99.90;;;;;;4990161;28;20132;-61
2023/07/15 05:24:51;;;;;;;9.90;4.43;;;20.00;99.90;;;;;;4987710;28;20038;-61
2023/07/15 05:27:16;;;;;;;7.85;4.10;;;20.70;99.90;;;;;;4988073;28;20042;-61
2023/07/15 05:29:42;;;;;;;9.38;4.75;;;20.10;99.90;;;;;;4980617;28;20084;-61
2023/07/15 05:32:08;;;;;;;7.93;4.10;;;20.70;99.90;;;;;;4987885;28;20046;-61
2023/07/15 05:34:34;;;;;;;10.77;4.90;;;20.20;99.90;;;;;;4990446;28;20066;-61
2023/07/15 05:36:59;;;;;;;6.50;3.90;;;20.70;99.90;;;;;;4986472;28;20084;-61
2023/07/15 05:39:25;;;;;;;6.70;3.75;;;20.70;99.90;;;;;;4982930;28;20034;-61
2023/07/15 05:41:51;;;;;;;7.82;4.03;;;20.90;99.90;;;;;;4983998;28;20400;-61
2023/07/15 05:44:16;;;;;;;8.18;4.00;;;20.60;99.90;;;;;;4987479;28;20035;-61
2023/07/15 05:46:42;;;;;;;8.30;4.03;;;21.50;99.90;;;;;;4977354;28;20172;-61
2023/07/15 05:49:07;;;;;;;6.18;3.78;;;21.10;99.90;;;;;;4978440;28;20050;-61
2023/07/15 05:51:34;;;;;;;6.82;3.63;;;20.80;99.90;;;;;;4971128;28;20039;-61
2023/07/15 05:54:00;;;;;;;9.00;4.32;;;20.70;99.90;;;;;;4976611;28;20047;-61
2023/07/15 05:56:25;;;;;;;7.25;3.80;;;21.60;99.90;;;;;;4979095;28;20057;-61
2023/07/15 05:58:51;;;;;;;7.07;3.97;;;20.70;99.90;;;;;;4984981;28;20039;-61
2023/07/15 06:01:17;;;;;;;8.30;3.97;;;21.80;99.90;;;;;;4979400;28;20030;-61
2023/07/15 06:03:42;;;;;;;7.32;3.75;;;20.90;99.90;;;;;;4977914;28;20450;-61
2023/07/15 06:06:09;;;;;;;7.82;4.15;;;21.00;99.90;;;;;;4981135;28;20556;-61
2023/07/15 06:08:35;;;;;;;8.13;3.50;;;21.00;99.90;;;;;;4981010;28;20375;-61
2023/07/15 06:11:00;;;;;;;8.38;3.75;;;21.60;99.90;;;;;;4984835;28;20125;-61
2023/07/15 06:13:26;;;;;;;7.45;3.15;;;21.90;99.90;;;;;;4986581;28;20041;-61
2023/07/15 06:15:52;;;;;;;6.45;3.28;;;20.70;99.90;;;;;;4984872;28;20133;-61
2023/07/15 06:18:18;;;;;;;8.02;3.80;;;21.10;99.90;;;;;;4978834;28;20400;-61
2023/07/15 06:20:47;;;;;;;7.03;3.38;;;21.80;99.90;;;;;;4987563;28;20057;-61
2023/07/15 06:23:13;;;;;;;6.80;3.17;;;22.30;99.90;;;;;;4981231;28;20049;-61
2023/07/15 06:25:39;;;;;;;7.32;2.60;;;21.90;99.90;;;;;;4989637;28;20117;-61
2023/07/15 06:28:05;;;;;;;7.32;2.78;;;21.80;99.90;;;;;;4986685;28;20122;-61
2023/07/15 06:30:31;;;;;;;5.50;2.60;;;21.10;99.90;;;;;;4979760;28;20038;-61
2023/07/15 06:32:57;;;;;;;8.25;2.60;;;22.30;99.90;;;;;;4979056;28;20039;-61
2023/07/15 06:35:22;;;;;;;5.78;2.25;;;21.50;99.90;;;;;;4977642;28;20050;-62
2023/07/15 06:37:49;;;;;;;8.60;2.97;;;21.40;99.90;;;;;;4985774;28;20261;-61
2023/07/15 06:40:16;;;;;;;6.25;2.65;;;22.20;99.90;;;;;;4983861;28;20035;-61
2023/07/15 06:42:43;;;;;;;7.30;2.20;;;21.40;97.10;;;;;;4981152;28;20046;-61
2023/07/15 06:45:09;;;;;;;5.93;2.53;;;22.20;96.70;;;;;;4972471;28;20043;-62
2023/07/15 06:47:35;;;;;;;6.45;2.00;;;22.60;1.00;;;;;;4979121;28;20065;-61
2023/07/15 06:50:01;;;;;;;6.28;2.15;;;;;;;;;;4975423;28;20141;-61
2023/07/15 06:52:27;;;;;;;7.03;2.47;;;22.70;1.00;;;;;;4981421;28;20490;-61
2023/07/15 06:54:52;;;;;;;6.32;2.00;;;22.60;1.00;;;;;;4977159;28;20125;-61
2023/07/15 06:57:19;;;;;;;6.65;2.95;;;22.00;1.00;;;;;;4980919;28;20030;-61
2023/07/15 06:59:44;;;;;;;4.18;1.80;;;22.30;1.00;;;;;;4977571;28;20513;-61
2023/07/15 07:02:10;;;;;;;5.85;2.28;;;22.50;1.00;;;;;;4979397;28;20031;-61
2023/07/15 07:04:36;;;;;;;4.90;2.22;;;21.80;1.00;;;;;;4978357;28;20135;-61
2023/07/15 07:07:01;;;;;;;5.65;2.30;;;22.20;1.00;;;;;;4980824;28;20042;-61
2023/07/15 07:09:27;;;;;;;4.82;2.03;;;22.30;1.00;;;;;;4986944;28;20042;-61
2023/07/15 07:11:53;;;;;;;5.97;2.30;;;22.20;1.00;;;;;;4987226;28;20105;-61
2023/07/15 07:14:18;;;;;;;5.47;2.33;;;22.30;1.00;;;;;;4987714;28;20038;-61
2023/07/15 07:16:44;;;;;;;9.18;2.08;;;22.30;1.00;;;;;;4984565;28;20042;-61
2023/07/15 07:19:10;;;;;;;6.88;2.20;;;21.60;1.00;;;;;;4980104;28;20034;-61
2023/07/15 07:21:36;;;;;;;4.82;2.08;;;22.70;1.00;;;;;;4982492;28;20042;-61
2023/07/15 07:24:02;;;;;;;5.93;2.42;;;22.30;1.00;;;;;;4983518;28;20045;-61
2023/07/15 07:26:27;;;;;;;5.07;1.92;;;22.40;1.00;;;;;;4980013;28;20050;-61
2023/07/15 07:28:53;;;;;;;6.38;2.38;;;21.90;1.00;;;;;;4984529;28;20499;-61
2023/07/15 07:31:19;;;;;;;5.53;2.00;;;22.20;1.00;;;;;;4987351;28;20031;-61
2023/07/15 07:33:45;;;;;;;6.25;2.08;;;21.90;1.00;;;;;;4984055;28;20585;-61
2023/07/15 07:36:11;;;;;;;6.15;2.20;;;22.20;1.00;;;;;;4989489;28;20030;-61
2023/07/15 07:38:37;;;;;;;5.45;2.00;;;22.30;1.00;;;;;;4984452;28;20031;-61
2023/07/15 07:41:10;;;;;;;8.13;2.50;;;22.30;1.00;;;;;;4989754;28;20181;-60
2023/07/15 07:43:37;;;;;;;4.45;1.60;;;22.40;1.00;;;;;;4986739;28;20031;-61
2023/07/15 07:46:05;;;;;;;4.35;1.77;;;22.80;99.90;;;;;;4989594;28;20038;-60
2023/07/15 07:48:31;;;;;;;5.15;1.60;;;22.60;99.90;;;;;;4980763;28;20082;-61
2023/07/15 07:50:57;;;;;;;3.80;1.35;;;22.80;99.90;;;;;;4981546;28;20056;-60
2023/07/15 07:53:23;;;;;;;5.65;1.40;;;22.30;99.90;;;;;;4987375;28;20074;-60
2023/07/15 07:55:50;;;;;;;6.80;1.77;;;22.00;99.90;;;;;;4985627;28;20058;-61
2023/07/15 07:58:16;;;;;;;5.53;1.70;;;22.40;65.60;;;;;;4987754;28;20030;-60
2023/07/15 08:00:42;;;;;;;4.57;1.38;;;21.00;87.00;;;;;;4985978;28;20061;-60
2023/07/15 08:03:07;;;;;;;4.45;1.33;;;22.50;44.40;;;;;;4986394;28;20045;-60
2023/07/15 08:05:33;;;;;;;5.82;1.40;;;22.60;30.80;;;;;;4988914;28;20045;-60
2023/07/15 08:07:58;;;;;;;6.15;1.45;;;22.20;32.50;;;;;;4985233;28;20034;-60
2023/07/15 08:10:24;;;;;;;4.22;1.40;;;22.10;46.20;;;;;;4986591;28;20038;-60
2023/07/15 08:12:50;;;;;;;4.93;1.33;;;22.90;89.70;;;;;;4984162;28;20065;-60
2023/07/15 08:15:15;;;;;;;5.80;1.63;;;21.60;99.90;;;;;;4976979;28;20034;-60
2023/07/15 08:17:41;;;;;;;4.13;1.20;;;22.30;99.90;;;;;;4989630;28;20041;-60
2023/07/15 08:20:08;;;;;;;4.20;1.65;;;22.30;99.90;;;;;;4987503;28;20508;-60
2023/07/15 08:22:34;;;;;;;5.32;1.50;;;22.40;99.90;;;;;;4984204;28;20487;-60
2023/07/15 08:25:00;;;;;;;9.15;1.70;;;22.40;99.90;;;;;;4984993;28;20038;-60
2023/07/15 08:27:25;;;;;;;8.35;2.00;;;22.50;99.90;;;;;;4983982;28;20069;-60
2023/07/15 08:29:51;;;;;;;6.90;2.22;;;22.20;99.90;;;;;;4985613;28;20049;-60
2023/07/15 08:32:17;;;;;;;7.80;2.47;;;22.90;99.90;;;;;;4980992;28;20050;-60
2023/07/15 08:34:59;;;;;;;4.88;1.50;;;22.40;99.90;;;;;;4989296;28;20039;-60
2023/07/15 08:37:25;;;;;;;7.68;1.75;;;21.80;99.90;;;;;;4979986;28;20046;-60
2023/07/15 08:39:51;;;;;;;6.38;1.83;;;22.60;99.90;;;;;;4988728;28;20105;-60
2023/07/15 08:42:19;;;;;;;5.03;1.70;;;22.10;92.80;;;;;;4979054;28;20121;-60
2023/07/15 08:44:46;;;;;;;5.32;1.80;;;21.90;6.20;;;;;;4984109;28;20049;-60
2023/07/15 08:47:24;;;;;;;4.65;1.60;;;22.50;1.00;;;;;;4982228;28;20035;-60
2023/07/15 08:49:53;;;;;;;5.53;1.63;;;22.70;1.00;;;;;;4979418;28;20072;-60
2023/07/15 08:52:23;;;;;;;5.55;1.60;;;23.10;99.90;;;;;;4988681;28;20038;-60
2023/07/15 08:54:51;;;;;;;4.60;1.45;;;22.60;99.90;;;;;;4990300;28;20046;-60
2023/07/15 08:57:18;;;;;;;5.80;1.88;;;22.00;99.90;;;;;;4985571;28;20058;-60
2023/07/15 08:59:48;;;;;;;7.03;1.83;;;22.80;99.90;;;;;;4982916;28;20106;-61
2023/07/15 09:02:14;;;;;;;7.57;2.00;;;22.90;99.90;;;;;;4987947;28;20035;-60
2023/07/15 09:04:40;;;;;;;5.35;1.55;;;23.50;99.90;;;;;;4990611;28;20053;-61
2023/07/15 09:07:06;;;;;;;6.45;1.75;;;22.60;99.90;;;;;;4989386;28;20084;-61
2023/07/15 09:09:34;;;;;;;5.55;1.75;;;22.80;99.90;;;;;;4990532;28;20034;-61
2023/07/15 09:12:02;;;;;;;6.53;1.90;;;22.80;99.90;;;;;;4990033;28;20398;-61
2023/07/15 09:14:27;;;;;;;6.25;1.73;;;23.00;99.90;;;;;;4989400;28;20121;-61
2023/07/15 09:16:55;;;;;;;5.65;1.60;;;22.40;99.90;;;;;;4969053;28;20046;-61
2023/07/15 09:19:26;;;;;;;6.47;1.90;;;22.90;99.90;;;;;;4987471;28;20057;-61
2023/07/15 09:22:07;;;;;;;4.88;1.83;;;22.40;99.90;;;;;;5005693;28;20042;-61
2023/07/15 09:24:33;;;;;;;6.63;1.95;;;22.50;99.90;;;;;;4979342;28;20061;-60
2023/07/15 09:27:00;;;;;;;5.00;1.70;;;22.90;99.90;;;;;;4987852;28;20034;-61
2023/07/15 09:29:26;;;;;;;5.18;1.80;;;22.10;99.90;;;;;;4979529;28;20641;-61
2023/07/15 09:31:52;;;;;;;12.73;2.08;;;22.50;99.90;;;;;;4982166;28;20042;-61
2023/07/15 09:34:18;;;;;;;5.53;1.85;;;22.70;99.90;;;;;;4990002;28;20504;-61
2023/07/15 09:36:44;;;;;;;4.93;2.05;;;22.80;99.90;;;;;;4989981;28;20053;-61
2023/07/15 09:39:14;;;;;;;5.65;1.75;;;22.90;99.90;;;;;;4988464;28;20042;-61
2023/07/15 09:41:41;;;;;;;4.93;1.50;;;23.40;99.90;;;;;;4984447;28;20039;-61
2023/07/15 09:44:07;;;;;;;6.72;2.05;;;23.20;99.90;;;;;;4975886;28;20038;-61
2023/07/15 09:46:33;;;;;;;5.15;1.70;;;22.90;99.90;;;;;;4985903;28;20484;-61
2023/07/15 09:48:59;;;;;;;4.82;1.63;;;22.70;99.90;;;;;;4979599;28;20473;-62
2023/07/15 09:51:26;;;;;;;4.72;1.45;;;23.10;99.90;;;;;;4980642;28;20103;-61
2023/07/15 09:53:54;;;;;;;5.65;2.22;;;24.00;99.90;;;;;;4978051;28;20439;-61
2023/07/15 09:56:24;;;;;;;5.00;1.50;;;22.70;99.90;;;;;;4987229;28;20055;-61
2023/07/15 09:58:53;;;;;;;4.13;1.70;;;23.50;99.90;;;;;;4978278;28;20500;-61
2023/07/15 10:01:31;;;;;;;5.90;1.88;;;22.50;99.90;;;;;;4975318;28;20069;-61
2023/07/15 10:04:15;;;;;;;6.47;1.80;;;23.80;99.90;;;;;;4989544;28;20633;-61
2023/07/15 10:06:42;;;;;;;6.40;2.13;;;23.20;99.90;;;;;;4970616;28;20046;-61
2023/07/15 10:09:09;;;;;;;9.80;2.10;;;23.40;99.90;;;;;;4985412;28;20030;-61
2023/07/15 10:11:35;;;;;;;4.53;1.60;;;23.70;99.90;;;;;;4989973;28;20038;-61
2023/07/15 10:14:03;;;;;;;5.38;2.00;;;23.60;99.90;;;;;;4989809;28;20062;-61
2023/07/15 10:16:33;;;;;;;6.13;1.98;;;23.60;99.90;;;;;;4978222;28;20111;-61
2023/07/15 10:19:01;;;;;;;5.05;1.90;;;23.50;99.90;;;;;;4975726;28;20046;-61
2023/07/15 10:21:27;;;;;;;5.53;2.22;;;24.60;99.90;;;;;;4973438;28;20057;-61
2023/07/15 10:24:07;;;;;;;5.35;1.70;;;23.70;99.90;;;;;;4976437;28;20035;-61
2023/07/15 10:26:33;;;;;;;4.30;1.70;;;23.60;99.90;;;;;;4977017;28;20046;-61
2023/07/15 10:28:59;;;;;;;4.70;1.70;;;24.10;99.90;;;;;;4976084;28;20408;-61
2023/07/15 10:31:24;;;;;;;5.70;1.60;;;23.00;99.90;;;;;;4978003;28;20646;-61
2023/07/15 10:33:58;;;;;;;6.88;1.92;;;;;;;;;;4971993;28;20066;-60
2023/07/15 10:36:47;;;;;;;5.45;1.85;;;23.50;99.90;;;;;;4979214;28;20201;-61
2023/07/15 10:39:16;;;;;;;5.15;1.80;;;24.80;99.90;;;;;;4983714;28;20038;-60
2023/07/15 10:41:52;;;;;;;5.10;1.65;;;24.60;99.90;;;;;;4982249;28;20046;-61
2023/07/15 10:44:23;;;;;;;4.30;1.88;;;23.50;99.90;;;;;;4993583;28;20038;-61
2023/07/15 10:46:55;;;;;;;5.88;1.85;;;23.60;99.90;;;;;;4981534;28;20043;-61
2023/07/15 10:49:21;;;;;;;4.10;1.55;;;23.40;99.90;;;;;;4994411;28;20050;-60
2023/07/15 10:51:47;;;;;;;5.47;2.22;;;23.30;99.90;;;;;;4984266;28;20038;-61
2023/07/15 10:54:18;;;;;;;6.60;2.17;;;23.20;99.90;;;;;;4984575;28;20053;-61
2023/07/15 10:56:44;;;;;;;6.65;2.03;;;24.10;99.90;;;;;;4986394;28;20046;-60
2023/07/15 10:59:09;;;;;;;4.45;1.50;;;24.10;99.90;;;;;;4978329;28;20043;-60
2023/07/15 11:01:36;;;;;;;6.57;1.75;;;24.30;99.90;;;;;;4976733;28;20057;-60
2023/07/15 11:04:05;;;;;;;5.15;1.65;;;23.90;99.90;;;;;;4985297;28;20041;-60
2023/07/15 11:06:33;;;;;;;4.00;1.60;;;23.80;99.90;;;;;;4978084;28;20053;-60
2023/07/15 11:09:19;;;;;;;5.28;1.70;;;23.80;99.90;;;;;;4976784;28;20034;-60
2023/07/15 11:11:45;;;;;;;6.13;1.73;;;24.70;99.90;;;;;;4975086;28;20086;-60
2023/07/15 11:14:28;;;;;;;5.15;1.83;;;24.80;99.90;;;;;;4976072;28;20523;-60
2023/07/15 11:16:58;;;;;;;6.22;1.80;;;24.50;99.90;;;;;;4985242;28;20048;-60
2023/07/15 11:19:27;;;;;;;4.47;1.70;;;24.00;99.90;;;;;;4979093;28;20047;-60
2023/07/15 11:21:55;;;;;;;5.05;1.60;;;24.50;99.90;;;;;;4989622;28;20093;-60
2023/07/15 11:24:25;;;;;;;6.70;1.70;;;24.90;99.90;;;;;;4992588;28;20081;-60
2023/07/15 11:26:52;;;;;;;3.38;1.30;;;25.20;99.90;;;;;;4994917;28;20041;-60
2023/07/15 11:29:24;;;;;;;6.22;1.50;;;24.20;99.90;;;;;;4986946;28;20035;-60
2023/07/15 11:31:52;;;;;;;4.32;1.40;;;25.30;99.90;;;;;;4994008;28;20046;-60
2023/07/15 11:34:19;;;;;;;4.35;1.40;;;24.50;99.90;;;;;;4991461;28;20392;-60
2023/07/15 11:36:46;;;;;;;4.32;1.63;;;24.10;99.90;;;;;;4987195;28;20034;-60
2023/07/15 11:39:13;;;;;;;4.28;1.60;;;25.20;99.90;;;;;;4992160;28;20057;-60
2023/07/15 11:41:39;;;;;;;5.57;1.73;;;24.00;99.90;;;;;;4988088;28;20085;-60
2023/07/15 11:44:11;;;;;;;6.38;1.92;;;24.60;99.90;;;;;;4993731;28;20455;-60
2023/07/15 11:46:38;;;;;;;4.90;1.65;;;25.10;99.90;;;;;;4994415;28;20085;-60
2023/07/15 11:49:04;;;;;;;4.28;1.67;;;24.60;99.90;;;;;;4984408;28;20062;-60
2023/07/15 11:51:34;;;;;;;4.22;1.85;;;24.40;99.90;;;;;;4985271;28;20519;-60
2023/07/15 11:54:00;;;;;;;6.18;1.98;;;25.10;99.90;;;;;;4979671;28;20126;-60
2023/07/15 11:56:36;;;;;;;4.60;1.77;;;24.80;99.90;;;;;;4977619;28;20045;-60
2023/07/15 11:59:02;;;;;;;4.70;1.80;;;25.30;99.90;;;;;;4979962;28;20130;-61
2023/07/15 12:01:28;;;;;;;4.50;1.80;;;24.20;99.90;;;;;;4975525;28;20416;-60
2023/07/15 12:03:54;;;;;;;5.57;1.67;;;25.10;99.90;;;;;;4980283;28;20045;-60
2023/07/15 12:06:26;;;;;;;4.70;1.77;;;25.20;99.90;;;;;;4976260;28;20125;-60
2023/07/15 12:09:09;;;;;;;4.30;1.60;;;24.20;99.90;;;;;;4977391;28;20042;-60
2023/07/15 12:11:35;;;;;;;4.53;1.70;;;25.30;99.90;;;;;;4974996;28;20049;-60
2023/07/15 12:14:02;;;;;;;5.15;1.88;;;24.20;99.90;;;;;;4979737;28;20706;-60
2023/07/15 12:16:30;;;;;;;5.35;2.10;;;24.40;99.90;;;;;;4986711;28;20041;-59
2023/07/15 12:18:57;;;;;;;5.15;1.70;;;25.30;99.90;;;;;;4988011;28;20113;-60
2023/07/15 12:21:23;;;;;;;6.25;2.28;;;24.10;99.90;;;;;;4980495;28;20551;-60
2023/07/15 12:23:51;;;;;;;5.80;1.90;;;24.20;99.90;;;;;;4974526;28;20047;-60
2023/07/15 12:26:18;;;;;;;4.45;1.85;;;25.40;99.90;;;;;;4982791;28;20043;-60
2023/07/15 12:28:44;;;;;;;4.60;1.95;;;25.30;99.90;;;;;;4979463;28;20093;-60
2023/07/15 12:31:09;;;;;;;5.50;1.80;;;24.60;99.90;;;;;;4991568;28;20041;-60
2023/07/15 12:33:35;;;;;;;4.82;1.60;;;24.10;99.90;;;;;;4979786;28;20618;-60
2023/07/15 12:36:02;;;;;;;5.85;1.83;;;25.30;99.90;;;;;;4991028;28;20058;-60
2023/07/15 12:38:28;;;;;;;6.45;2.00;;;24.30;99.90;;;;;;4982747;28;20043;-60
2023/07/15 12:40:54;;;;;;;6.57;2.00;;;24.20;99.90;;;;;;4990760;28;20544;-60
2023/07/15 12:43:20;;;;;;;5.53;1.88;;;24.30;99.90;;;;;;4982813;28;20038;-60
2023/07/15 12:45:47;;;;;;;5.68;1.92;;;25.30;99.90;;;;;;4963355;28;20030;-60
2023/07/15 12:48:12;;;;;;;5.00;1.73;;;24.40;99.90;;;;;;4986337;28;20182;-60
2023/07/15 12:50:38;;;;;;;4.25;1.85;;;24.10;99.90;;;;;;4990494;28;20078;-60